Time;durP1;ratioP1;P1;durP2;ratioP2;P2;SDS_P1;SDS_P2;PMS_P1;PMS_P2;Temp;Humidity;BMP_temperature;BMP_pressure;BME280_temperature;BME280_humidity;BME280_pressure;Samples;Min_cycle;Max_cycle;Signal;HPM_P1;HPM_P2
2020/12/29 00:00:28;;;;;;;19.77;18.77;;;4.60;81.20;;;;;;5072731;28;20200;-77
2020/12/29 00:02:55;;;;;;;19.10;18.10;;;4.70;80.20;;;;;;5072552;28;20195;-77
2020/12/29 00:05:21;;;;;;;17.45;16.65;;;4.70;79.70;;;;;;5072671;28;20222;-77
2020/12/29 00:07:53;;;;;;;18.52;17.73;;;4.80;79.70;;;;;;5072632;28;20677;-77
2020/12/29 00:10:21;;;;;;;17.63;16.75;;;4.70;81.00;;;;;;5072434;28;20196;-77
2020/12/29 00:12:49;;;;;;;17.23;16.35;;;4.70;82.10;;;;;;5072499;28;20220;-77
2020/12/29 00:15:15;;;;;;;17.33;16.42;;;4.60;82.50;;;;;;5072161;28;20287;-77
2020/12/29 00:17:42;;;;;;;18.00;16.95;;;4.70;82.50;;;;;;5072437;28;20272;-77
2020/12/29 00:20:09;;;;;;;17.25;16.35;;;4.60;82.90;;;;;;5072416;28;20206;-77
2020/12/29 00:22:36;;;;;;;16.70;15.90;;;4.60;82.90;;;;;;5072440;28;20195;-77
2020/12/29 00:25:03;;;;;;;16.63;15.82;;;4.60;82.70;;;;;;5072339;28;20224;-77
2020/12/29 00:27:30;;;;;;;16.60;15.80;;;4.60;83.80;;;;;;5071875;28;20207;-77
2020/12/29 00:29:56;;;;;;;17.00;16.20;;;4.60;84.00;;;;;;5072469;28;20199;-77
2020/12/29 00:32:23;;;;;;;15.85;15.07;;;4.60;83.60;;;;;;5072254;28;20211;-77
2020/12/29 00:34:49;;;;;;;15.15;14.43;;;4.50;83.80;;;;;;5071947;28;20188;-77
2020/12/29 00:37:16;;;;;;;15.98;15.25;;;4.40;85.70;;;;;;5072163;28;20218;-77
2020/12/29 00:39:43;;;;;;;15.23;14.52;;;4.40;85.60;;;;;;5072387;28;20223;-77
2020/12/29 00:42:09;;;;;;;15.40;14.60;;;4.40;85.70;;;;;;5072067;28;20196;-77
2020/12/29 00:44:36;;;;;;;15.57;14.88;;;4.40;86.00;;;;;;5072147;28;20192;-77
2020/12/29 00:47:03;;;;;;;15.88;15.18;;;4.40;85.20;;;;;;5072159;28;20701;-77
2020/12/29 00:49:29;;;;;;;15.55;14.88;;;4.40;85.00;;;;;;5072033;28;20612;-77
2020/12/29 00:51:56;;;;;;;14.93;14.23;;;4.40;85.20;;;;;;5072328;28;20249;-77
2020/12/29 00:54:22;;;;;;;15.45;14.75;;;4.40;85.80;;;;;;5072040;28;20203;-77
2020/12/29 00:56:48;;;;;;;15.30;14.60;;;4.40;86.30;;;;;;5072103;28;20666;-77
2020/12/29 00:59:15;;;;;;;15.52;14.82;;;4.40;86.00;;;;;;5072181;28;20192;-77
2020/12/29 01:01:42;;;;;;;16.23;15.43;;;4.60;84.30;;;;;;5072171;28;20196;-77
2020/12/29 01:04:08;;;;;;;15.73;15.02;;;4.60;83.80;;;;;;5072285;28;20199;-77
2020/12/29 01:06:34;;;;;;;15.07;14.48;;;4.70;83.90;;;;;;5071851;28;20306;-77
2020/12/29 01:09:01;;;;;;;14.73;14.13;;;4.80;84.00;;;;;;5072327;28;20215;-77
2020/12/29 01:11:27;;;;;;;14.85;14.25;;;4.90;84.30;;;;;;5072236;28;20633;-77
2020/12/29 01:13:53;;;;;;;14.63;14.02;;;4.80;84.70;;;;;;5073571;28;20693;-77
2020/12/29 01:16:21;;;;;;;14.40;13.70;;;4.80;85.10;;;;;;5075389;28;20723;-77
2020/12/29 01:18:49;;;;;;;14.65;14.05;;;4.90;85.80;;;;;;5075695;28;20252;-77
2020/12/29 01:21:15;;;;;;;14.70;14.00;;;4.80;85.70;;;;;;5075385;28;20213;-77
2020/12/29 01:23:41;;;;;;;24.52;15.15;;;4.80;86.20;;;;;;5075769;28;20196;-77
2020/12/29 01:26:08;;;;;;;14.13;13.55;;;4.90;88.80;;;;;;5075470;28;20727;-77
2020/12/29 01:28:35;;;;;;;14.50;13.90;;;4.80;87.10;;;;;;5075892;28;20270;-77
2020/12/29 01:31:01;;;;;;;15.05;14.25;;;4.90;86.90;;;;;;5075279;28;20215;-77
2020/12/29 01:33:27;;;;;;;16.77;15.75;;;4.90;87.40;;;;;;5075157;28;20219;-77
2020/12/29 01:35:54;;;;;;;14.93;14.23;;;5.00;87.30;;;;;;5075368;28;20219;-77
2020/12/29 01:38:21;;;;;;;14.10;13.50;;;4.90;86.80;;;;;;5076118;28;20568;-77
2020/12/29 01:40:47;;;;;;;15.27;14.27;;;4.90;86.80;;;;;;5077166;28;20195;-77
2020/12/29 01:43:13;;;;;;;14.00;13.40;;;4.80;88.00;;;;;;5074982;28;20203;-77
2020/12/29 01:45:40;;;;;;;14.10;13.50;;;4.80;88.20;;;;;;5075185;28;20762;-77
2020/12/29 01:48:06;;;;;;;14.93;14.25;;;4.80;88.00;;;;;;5075103;28;20206;-77
2020/12/29 01:50:32;;;;;;;14.13;13.52;;;4.80;87.80;;;;;;5075098;28;20677;-77
2020/12/29 01:53:01;;;;;;;14.77;14.07;;;4.90;87.60;;;;;;5074914;28;20220;-77
2020/12/29 01:55:28;;;;;;;14.00;13.40;;;4.90;87.60;;;;;;5074957;28;20200;-77
2020/12/29 01:57:56;;;;;;;14.00;13.40;;;4.90;88.10;;;;;;5075055;28;20680;-77
2020/12/29 02:00:23;;;;;;;13.80;13.20;;;4.90;88.00;;;;;;5074757;28;20202;-77
2020/12/29 02:02:50;;;;;;;14.55;13.70;;;4.90;87.80;;;;;;5055196;28;20195;-77
2020/12/29 02:05:17;;;;;;;13.93;13.32;;;4.90;87.80;;;;;;5055137;28;20283;-77
2020/12/29 02:07:47;;;;;;;14.98;14.27;;;4.90;88.30;;;;;;5054884;28;20202;-77
2020/12/29 02:10:15;;;;;;;14.40;13.80;;;4.90;87.90;;;;;;5060204;28;20217;-77
2020/12/29 02:12:41;;;;;;;14.85;14.15;;;5.00;87.30;;;;;;5074748;28;20220;-77
2020/12/29 02:15:08;;;;;;;14.43;13.82;;;5.00;87.20;;;;;;5074838;28;20200;-77
2020/12/29 02:17:35;;;;;;;15.02;14.18;;;5.10;86.50;;;;;;5074651;28;20216;-77
2020/12/29 02:20:01;;;;;;;13.65;13.13;;;5.10;86.70;;;;;;5074547;28;20203;-77
2020/12/29 02:22:29;;;;;;;14.30;13.70;;;5.00;87.60;;;;;;5074505;28;20195;-77
2020/12/29 02:24:57;;;;;;;142.73;26.40;;;5.00;86.90;;;;;;5073935;28;20203;-77
2020/12/29 02:27:25;;;;;;;15.10;14.45;;;5.00;87.70;;;;;;5074178;28;20693;-76
2020/12/29 02:29:52;;;;;;;14.70;14.00;;;5.00;87.70;;;;;;5074771;28;20219;-77
2020/12/29 02:32:20;;;;;;;14.55;13.95;;;5.00;87.20;;;;;;5074109;28;20212;-77
2020/12/29 02:34:46;;;;;;;14.93;14.32;;;5.10;86.30;;;;;;5074250;28;20246;-77
2020/12/29 02:37:13;;;;;;;16.65;15.75;;;5.20;85.80;;;;;;5074146;28;20223;-77
2020/12/29 02:39:44;;;;;;;15.25;14.55;;;5.20;85.30;;;;;;5074369;28;20561;-77
2020/12/29 02:42:11;;;;;;;14.95;14.05;;;5.20;85.80;;;;;;5073628;28;20200;-77
2020/12/29 02:44:38;;;;;;;15.10;14.35;;;5.20;87.80;;;;;;5073868;28;20192;-77
2020/12/29 02:47:04;;;;;;;15.38;14.75;;;5.20;86.30;;;;;;5073766;28;20689;-77
2020/12/29 02:49:32;;;;;;;16.00;15.30;;;5.20;85.30;;;;;;5073954;28;20192;-77
2020/12/29 02:51:59;;;;;;;16.10;15.40;;;5.20;85.30;;;;;;5073996;28;20200;-77
2020/12/29 02:54:26;;;;;;;14.80;14.20;;;5.30;84.90;;;;;;5073855;28;20196;-77
2020/12/29 02:56:54;;;;;;;15.00;14.40;;;5.20;84.90;;;;;;5073653;28;20291;-77
2020/12/29 02:59:21;;;;;;;14.82;14.23;;;5.20;84.80;;;;;;5073954;28;20195;-77
2020/12/29 03:01:47;;;;;;;14.90;14.30;;;5.30;84.90;;;;;;5073878;28;20658;-77
2020/12/29 03:04:14;;;;;;;14.88;14.18;;;5.20;85.10;;;;;;5073670;28;20195;-77
2020/12/29 03:06:40;;;;;;;14.35;13.75;;;5.30;85.30;;;;;;5073558;28;20223;-77
2020/12/29 03:09:07;;;;;;;16.25;15.25;;;5.30;85.30;;;;;;5073629;28;20221;-77
2020/12/29 03:11:33;;;;;;;14.50;13.80;;;5.20;86.60;;;;;;5073767;28;20197;-77
2020/12/29 03:14:03;;;;;;;14.20;13.60;;;5.20;88.00;;;;;;5073483;28;20299;-77
2020/12/29 03:16:30;;;;;;;14.35;13.75;;;5.20;87.40;;;;;;5073204;28;20208;-77
2020/12/29 03:18:57;;;;;;;15.18;14.27;;;5.20;87.10;;;;;;5073614;28;20195;-77
2020/12/29 03:21:24;;;;;;;14.50;13.90;;;5.20;86.70;;;;;;5072642;28;20192;-77
2020/12/29 03:23:51;;;;;;;15.35;14.65;;;5.10;87.50;;;;;;5073592;28;20196;-77
2020/12/29 03:26:18;;;;;;;15.15;14.55;;;5.20;87.10;;;;;;5073032;28;20204;-77
2020/12/29 03:28:44;;;;;;;14.88;14.20;;;5.20;87.20;;;;;;5073468;28;20192;-77
2020/12/29 03:31:12;;;;;;;13.52;13.02;;;5.20;87.40;;;;;;5073470;28;20214;-77
2020/12/29 03:33:39;;;;;;;14.30;13.70;;;5.20;87.30;;;;;;5073165;28;20582;-77
2020/12/29 03:36:06;;;;;;;15.57;14.68;;;5.20;87.90;;;;;;5073735;28;20226;-77
2020/12/29 03:38:32;;;;;;;14.25;13.65;;;5.20;87.80;;;;;;5075430;28;20238;-77
2020/12/29 03:40:59;;;;;;;15.43;14.75;;;5.20;87.90;;;;;;5073123;28;20196;-77
2020/12/29 03:43:25;;;;;;;14.77;14.18;;;5.20;88.00;;;;;;5072610;28;20188;-77
2020/12/29 03:45:51;;;;;;;15.20;14.60;;;5.10;88.00;;;;;;5072875;28;20223;-77
2020/12/29 03:48:20;;;;;;;14.70;14.10;;;5.00;88.20;;;;;;5072853;28;20195;-77
2020/12/29 03:50:47;;;;;;;15.30;14.60;;;5.00;88.60;;;;;;5073170;28;20266;-77
2020/12/29 03:53:14;;;;;;;15.90;15.20;;;5.00;88.40;;;;;;5072692;28;20212;-77
2020/12/29 03:55:40;;;;;;;15.75;15.05;;;5.00;87.90;;;;;;5072557;28;20361;-77
2020/12/29 03:58:07;;;;;;;15.82;15.13;;;5.00;88.20;;;;;;5072985;28;20204;-77
2020/12/29 04:00:35;;;;;;;14.45;13.85;;;4.90;88.00;;;;;;5072768;28;20196;-77
2020/12/29 04:03:02;;;;;;;15.75;15.15;;;4.90;87.90;;;;;;5072947;28;20244;-77
2020/12/29 04:05:30;;;;;;;14.77;14.18;;;5.00;87.80;;;;;;5072405;28;20196;-77
2020/12/29 04:07:56;;;;;;;14.88;14.23;;;4.90;87.80;;;;;;5073918;28;20200;-77
2020/12/29 04:10:22;;;;;;;14.77;14.18;;;4.90;88.10;;;;;;5073812;28;20211;-77
2020/12/29 04:12:49;;;;;;;14.93;14.27;;;4.90;88.10;;;;;;5075079;28;20220;-77
2020/12/29 04:15:15;;;;;;;15.57;14.77;;;5.00;87.80;;;;;;5075347;28;20348;-77
2020/12/29 04:17:43;;;;;;;14.40;13.80;;;5.00;88.70;;;;;;5075114;28;20313;-77
2020/12/29 04:20:11;;;;;;;14.70;14.00;;;5.10;88.20;;;;;;5073776;28;20736;-77
2020/12/29 04:22:40;;;;;;;14.20;13.60;;;5.10;88.10;;;;;;5074002;28;20561;-77
2020/12/29 04:25:07;;;;;;;14.75;13.95;;;5.10;87.30;;;;;;5074042;28;20203;-77
2020/12/29 04:27:34;;;;;;;15.20;14.60;;;5.00;88.10;;;;;;5073125;28;20241;-77
2020/12/29 04:30:00;;;;;;;14.30;13.70;;;5.00;87.90;;;;;;5073796;28;20191;-77
2020/12/29 04:32:27;;;;;;;15.18;14.48;;;5.00;87.80;;;;;;5073743;28;20220;-77
2020/12/29 04:34:53;;;;;;;15.40;14.70;;;5.00;87.60;;;;;;5073929;28;20196;-77
2020/12/29 04:37:19;;;;;;;15.05;14.35;;;5.00;87.50;;;;;;5074140;28;20273;-77
2020/12/29 04:39:47;;;;;;;14.70;14.10;;;5.00;87.80;;;;;;5054105;28;20706;-77
2020/12/29 04:42:15;;;;;;;15.80;15.00;;;5.00;87.50;;;;;;5054020;28;20200;-77
2020/12/29 04:44:43;;;;;;;15.15;14.45;;;5.00;87.50;;;;;;5053985;28;20254;-77
2020/12/29 04:47:10;;;;;;;15.88;15.18;;;4.90;87.80;;;;;;5053993;28;20220;-77
2020/12/29 04:49:38;;;;;;;15.50;14.80;;;4.90;87.40;;;;;;5076077;28;20200;-77
2020/12/29 04:52:06;;;;;;;14.85;14.15;;;5.00;86.90;;;;;;5077337;28;20201;-77
2020/12/29 04:54:34;;;;;;;14.82;14.23;;;5.00;86.60;;;;;;5078553;28;20195;-77
2020/12/29 04:57:02;;;;;;;15.07;14.43;;;5.00;86.30;;;;;;5078070;28;20251;-77
2020/12/29 04:59:29;;;;;;;15.10;14.40;;;5.00;86.40;;;;;;5077739;28;20195;-77
2020/12/29 05:01:56;;;;;;;16.08;15.10;;;5.10;86.70;;;;;;5077439;28;20191;-77
2020/12/29 05:04:22;;;;;;;14.43;13.68;;;5.00;87.10;;;;;;5078008;28;20192;-77
2020/12/29 05:06:49;;;;;;;14.27;13.38;;;5.00;87.70;;;;;;5077578;28;20238;-77
2020/12/29 05:09:19;;;;;;;14.05;13.45;;;5.00;87.70;;;;;;5077521;28;20253;-77
2020/12/29 05:11:45;;;;;;;14.55;13.95;;;5.00;87.80;;;;;;5078098;28;20673;-77
2020/12/29 05:14:13;;;;;;;14.70;14.10;;;5.00;88.10;;;;;;5077385;28;20702;-77
2020/12/29 05:16:40;;;;;;;15.15;14.45;;;5.00;88.10;;;;;;5077356;28;20609;-77
2020/12/29 05:19:08;;;;;;;15.23;14.55;;;4.90;88.50;;;;;;5076967;28;20200;-77
2020/12/29 05:21:37;;;;;;;15.05;14.30;;;4.90;88.60;;;;;;5077131;28;20721;-77
2020/12/29 05:24:13;;;;;;;16.05;14.75;;;4.90;88.30;;;;;;5076614;28;20248;-77
2020/12/29 05:26:40;;;;;;;15.05;14.27;;;5.00;88.00;;;;;;5077100;28;20219;-77
2020/12/29 05:29:08;;;;;;;14.85;14.15;;;5.00;88.10;;;;;;5076289;28;20218;-77
2020/12/29 05:31:36;;;;;;;14.98;14.20;;;4.90;88.40;;;;;;5075735;28;20196;-77
2020/12/29 05:34:04;;;;;;;14.20;13.50;;;4.90;88.40;;;;;;5078615;28;20216;-77
2020/12/29 05:36:35;;;;;;;14.70;14.00;;;4.90;88.50;;;;;;5077305;28;20215;-77
2020/12/29 05:39:06;;;;;;;14.70;14.10;;;4.90;88.40;;;;;;5075916;28;20565;-77
2020/12/29 05:41:37;;;;;;;14.68;13.88;;;4.90;88.00;;;;;;5075634;28;20196;-77
2020/12/29 05:44:05;;;;;;;13.93;13.38;;;4.80;88.00;;;;;;5075371;28;20200;-77
2020/12/29 05:46:31;;;;;;;14.60;13.90;;;4.90;88.10;;;;;;5075178;28;20216;-77
2020/12/29 05:48:59;;;;;;;15.23;14.48;;;4.90;87.90;;;;;;5075304;28;20204;-77
2020/12/29 05:51:26;;;;;;;14.55;13.95;;;4.80;88.10;;;;;;5075439;28;20196;-77
2020/12/29 05:54:02;;;;;;;15.50;14.80;;;4.80;88.60;;;;;;5075653;28;20218;-77
2020/12/29 05:56:30;;;;;;;14.75;14.13;;;4.90;88.10;;;;;;5075721;28;20626;-77
2020/12/29 05:58:58;;;;;;;14.90;14.20;;;4.80;88.60;;;;;;5074635;28;20200;-77
2020/12/29 06:01:35;;;;;;;15.05;14.15;;;5.00;88.20;;;;;;5074969;28;20188;-77
2020/12/29 06:04:04;;;;;;;14.70;14.00;;;5.00;88.10;;;;;;5075298;28;20282;-77
2020/12/29 06:06:33;;;;;;;14.30;13.70;;;5.00;88.50;;;;;;5074918;28;20220;-77
2020/12/29 06:09:06;;;;;;;14.90;14.20;;;4.90;88.40;;;;;;5075080;28;20271;-77
2020/12/29 06:11:41;;;;;;;14.63;14.02;;;4.90;88.30;;;;;;5074809;28;20196;-77
2020/12/29 06:14:13;;;;;;;14.60;13.80;;;5.00;88.20;;;;;;5058273;28;20215;-77
2020/12/29 06:16:41;;;;;;;15.10;14.30;;;5.00;87.90;;;;;;5074327;28;20216;-77
2020/12/29 06:19:21;;;;;;;13.45;12.95;;;4.90;88.00;;;;;;5074860;28;20199;-77
2020/12/29 06:21:55;;;;;;;14.02;13.32;;;4.80;88.20;;;;;;5074986;28;20206;-77
2020/12/29 06:24:24;;;;;;;14.90;13.70;;;4.70;88.40;;;;;;5074523;28;20245;-77
2020/12/29 06:26:53;;;;;;;14.70;14.00;;;4.70;88.90;;;;;;5074400;28;20262;-76
2020/12/29 06:29:21;;;;;;;13.60;13.00;;;4.80;88.40;;;;;;5074471;28;20727;-77
2020/12/29 06:31:50;;;;;;;14.70;14.00;;;4.70;88.60;;;;;;5074476;28;20674;-77
2020/12/29 06:34:18;;;;;;;15.18;14.48;;;4.70;88.30;;;;;;5074228;28;20220;-77
2020/12/29 06:36:48;;;;;;;15.05;14.35;;;4.70;88.40;;;;;;5074227;28;20218;-77
2020/12/29 06:39:15;;;;;;;14.77;13.98;;;4.60;88.60;;;;;;5074133;28;20199;-77
2020/12/29 06:41:42;;;;;;;14.05;13.25;;;4.70;88.70;;;;;;5074359;28;20207;-77
2020/12/29 06:44:13;;;;;;;14.27;13.68;;;4.70;88.40;;;;;;5073898;28;20196;-77
2020/12/29 06:46:39;;;;;;;15.85;15.05;;;4.60;88.70;;;;;;5075815;28;20220;-77
2020/12/29 06:49:22;;;;;;;15.77;15.00;;;4.70;88.50;;;;;;5078435;28;20204;-77
2020/12/29 06:52:09;;;;;;;14.20;13.50;;;4.70;88.50;;;;;;5066377;28;20650;-77
2020/12/29 06:54:45;;;;;;;14.82;13.73;;;4.70;88.70;;;;;;5073948;28;20241;-77
2020/12/29 06:57:11;;;;;;;14.10;13.40;;;4.80;88.00;;;;;;5073846;28;20227;-77
2020/12/29 06:59:39;;;;;;;15.02;14.32;;;4.80;87.90;;;;;;5073724;28;20246;-77
2020/12/29 07:02:17;;;;;;;14.38;13.70;;;4.80;88.20;;;;;;5073947;28;20529;-77
2020/12/29 07:04:52;;;;;;;14.50;13.90;;;4.70;88.10;;;;;;5074065;28;20616;-77
2020/12/29 07:07:32;;;;;;;15.13;14.32;;;4.70;89.20;;;;;;5073776;28;20268;-77
2020/12/29 07:10:10;;;;;;;14.63;13.98;;;4.70;88.50;;;;;;5073737;28;20196;-77
2020/12/29 07:12:40;;;;;;;15.02;14.30;;;4.70;88.10;;;;;;5072643;28;20196;-77
2020/12/29 07:15:07;;;;;;;14.57;13.80;;;4.70;88.20;;;;;;5073610;28;20232;-77
2020/12/29 07:17:33;;;;;;;14.80;14.20;;;4.70;87.90;;;;;;5073619;28;20269;-77
2020/12/29 07:20:00;;;;;;;14.63;14.02;;;4.60;88.10;;;;;;5074092;28;20199;-77
2020/12/29 07:22:27;;;;;;;15.70;15.00;;;4.70;87.80;;;;;;5073365;28;20204;-77
2020/12/29 07:24:55;;;;;;;15.32;14.48;;;4.80;87.70;;;;;;5073684;28;20184;-77
2020/12/29 07:27:21;;;;;;;14.93;14.18;;;4.80;87.60;;;;;;5073357;28;20220;-77
2020/12/29 07:29:52;;;;;;;15.77;14.98;;;4.90;87.60;;;;;;5073673;28;20195;-77
2020/12/29 07:32:19;;;;;;;14.45;13.85;;;4.90;87.80;;;;;;5076388;28;20206;-77
2020/12/29 07:34:47;;;;;;;16.33;15.43;;;4.90;87.70;;;;;;5073304;28;20219;-77
2020/12/29 07:37:16;;;;;;;15.63;14.60;;;5.00;87.70;;;;;;5073094;28;20216;-77
2020/12/29 07:39:44;;;;;;;15.02;14.13;;;5.00;87.90;;;;;;5073300;28;20200;-77
2020/12/29 07:42:12;;;;;;;15.05;14.25;;;5.00;87.50;;;;;;5073249;28;20438;-77
2020/12/29 07:44:38;;;;;;;16.05;15.25;;;5.00;87.20;;;;;;5072934;28;20196;-77
2020/12/29 07:47:05;;;;;;;16.80;15.90;;;5.10;88.10;;;;;;5072803;28;20218;-77
2020/12/29 07:49:31;;;;;;;16.02;15.20;;;5.10;87.60;;;;;;5072844;28;20222;-77
2020/12/29 07:51:57;;;;;;;15.32;14.25;;;5.10;87.50;;;;;;5073236;28;20196;-77
2020/12/29 07:54:25;;;;;;;15.63;14.60;;;5.10;87.00;;;;;;5073182;28;20230;-77
2020/12/29 07:56:51;;;;;;;15.38;14.50;;;5.20;86.80;;;;;;5072395;28;20624;-77
2020/12/29 07:59:17;;;;;;;16.95;15.95;;;5.20;86.80;;;;;;5072615;28;20195;-77
2020/12/29 08:01:55;;;;;;;18.23;16.52;;;5.20;86.70;;;;;;5073036;28;20196;-77
2020/12/29 08:04:39;;;;;;;16.08;15.25;;;5.20;86.60;;;;;;5072431;28;20239;-77
2020/12/29 08:07:09;;;;;;;16.75;15.43;;;5.20;86.50;;;;;;5072596;28;20302;-77
2020/12/29 08:09:46;;;;;;;15.70;14.70;;;5.30;86.30;;;;;;5072796;28;20600;-77
2020/12/29 08:12:15;;;;;;;15.15;14.35;;;5.30;86.20;;;;;;5072895;28;20200;-77
2020/12/29 08:14:41;;;;;;;16.75;15.32;;;5.30;86.20;;;;;;5072437;28;20215;-77
2020/12/29 08:17:08;;;;;;;21.60;17.15;;;5.40;86.10;;;;;;5072193;28;20212;-77
2020/12/29 08:19:34;;;;;;;17.30;15.95;;;5.50;86.40;;;;;;5072664;28;20223;-77
2020/12/29 08:22:04;;;;;;;17.23;15.40;;;5.50;85.90;;;;;;5072321;28;20196;-77
2020/12/29 08:24:31;;;;;;;17.27;16.40;;;5.60;85.60;;;;;;5072467;28;20237;-77
2020/12/29 08:26:59;;;;;;;15.80;14.80;;;5.70;85.00;;;;;;5072253;28;20220;-77
2020/12/29 08:29:26;;;;;;;17.20;16.13;;;5.60;85.20;;;;;;5072524;28;20298;-77
2020/12/29 08:32:06;;;;;;;16.50;15.70;;;5.60;85.40;;;;;;5071746;28;20283;-77
2020/12/29 08:34:35;;;;;;;17.10;15.80;;;5.60;85.20;;;;;;5071904;28;20246;-77
2020/12/29 08:37:04;;;;;;;17.52;16.20;;;5.60;85.30;;;;;;5072258;28;20218;-77
2020/12/29 08:40:02;;;;;;;17.67;16.48;;;5.60;85.50;;;;;;5072563;28;20196;-77
2020/12/29 08:42:32;;;;;;;16.70;15.35;;;5.70;85.50;;;;;;5072108;28;20726;-78
2020/12/29 08:45:00;;;;;;;18.90;15.93;;;5.70;86.10;;;;;;5072260;28;20738;-77
2020/12/29 08:47:31;;;;;;;22.60;16.00;;;5.70;86.40;;;;;;5072057;28;20218;-77
2020/12/29 08:49:58;;;;;;;16.65;15.52;;;5.80;86.60;;;;;;5072461;28;20196;-77
2020/12/29 08:52:31;;;;;;;16.27;14.73;;;5.80;86.30;;;;;;5072190;28;20199;-77
2020/12/29 08:54:57;;;;;;;26.67;18.60;;;5.80;87.60;;;;;;5072231;28;20214;-77
2020/12/29 08:57:26;;;;;;;16.23;14.82;;;5.70;88.40;;;;;;5072091;28;20221;-77
2020/12/29 08:59:54;;;;;;;194.52;29.48;;;5.70;88.20;;;;;;5071902;28;20198;-77
2020/12/29 09:02:28;;;;;;;15.65;14.30;;;5.70;89.40;;;;;;5072014;28;20289;-77
2020/12/29 09:04:59;;;;;;;17.52;15.90;;;5.70;89.20;;;;;;5052281;28;20255;-77
2020/12/29 09:07:28;;;;;;;15.65;14.75;;;5.80;92.70;;;;;;5051954;28;20225;-77
2020/12/29 09:10:04;;;;;;;16.30;15.45;;;5.80;90.50;;;;;;5065975;28;20238;-77
2020/12/29 09:12:31;;;;;;;24.83;16.90;;;5.80;87.70;;;;;;5071672;28;20205;-77
2020/12/29 09:15:00;;;;;;;15.80;15.10;;;5.70;89.20;;;;;;5072107;28;20222;-77
2020/12/29 09:17:27;;;;;;;16.13;15.10;;;5.60;88.30;;;;;;5071887;28;20222;-77
2020/12/29 09:20:10;;;;;;;63.20;17.67;;;5.60;89.50;;;;;;5071837;28;20204;-77
2020/12/29 09:22:51;;;;;;;16.60;15.48;;;5.70;91.00;;;;;;5071874;28;20217;-77
2020/12/29 09:25:42;;;;;;;23.65;16.92;;;5.70;88.10;;;;;;5072690;28;20192;-77
2020/12/29 09:28:19;;;;;;;18.33;16.40;;;5.70;88.50;;;;;;5073901;28;20205;-77
2020/12/29 09:30:57;;;;;;;16.60;15.75;;;5.70;87.30;;;;;;5053378;28;20216;-77
2020/12/29 09:33:24;;;;;;;16.20;15.35;;;5.70;86.70;;;;;;5069218;28;20208;-77
2020/12/29 09:35:51;;;;;;;22.23;16.85;;;5.70;87.00;;;;;;5074687;28;20218;-77
2020/12/29 09:38:18;;;;;;;17.20;15.50;;;5.70;87.40;;;;;;5076000;28;20203;-77
2020/12/29 09:40:45;;;;;;;19.27;16.42;;;5.70;86.60;;;;;;5075617;28;20557;-77
2020/12/29 09:43:12;;;;;;;16.20;15.40;;;5.80;87.10;;;;;;5075433;28;20197;-77
2020/12/29 09:45:38;;;;;;;16.15;15.25;;;5.80;88.00;;;;;;5075740;28;20216;-77
2020/12/29 09:48:06;;;;;;;16.35;15.35;;;5.90;86.70;;;;;;5075370;28;20682;-77
2020/12/29 09:50:32;;;;;;;21.00;15.90;;;5.90;87.60;;;;;;5075604;28;20194;-77
2020/12/29 09:52:58;;;;;;;18.52;16.63;;;5.80;89.20;;;;;;5075522;28;20226;-77
2020/12/29 09:55:24;;;;;;;16.30;15.10;;;6.00;87.70;;;;;;5075458;28;20215;-77
2020/12/29 09:57:51;;;;;;;16.58;15.40;;;6.10;88.90;;;;;;5076310;28;20200;-77
2020/12/29 10:00:17;;;;;;;15.25;14.55;;;6.10;87.80;;;;;;5081018;28;20196;-77
2020/12/29 10:02:43;;;;;;;16.55;15.75;;;6.20;87.60;;;;;;5081050;28;20196;-77
2020/12/29 10:05:11;;;;;;;16.15;15.35;;;6.20;86.60;;;;;;5076096;28;20243;-77
2020/12/29 10:07:37;;;;;;;17.70;16.55;;;6.30;86.80;;;;;;5074890;28;20216;-77
2020/12/29 10:10:04;;;;;;;17.27;16.23;;;6.50;85.50;;;;;;5075166;28;20235;-77
2020/12/29 10:12:30;;;;;;;18.02;16.60;;;6.50;88.00;;;;;;5074753;28;20191;-77
2020/12/29 10:14:57;;;;;;;16.55;15.65;;;6.40;88.10;;;;;;5074921;28;20258;-77
2020/12/29 10:17:23;;;;;;;17.00;15.90;;;6.50;87.80;;;;;;5074704;28;20559;-77
2020/12/29 10:19:50;;;;;;;17.30;16.50;;;6.60;85.60;;;;;;5074852;28;20583;-77
2020/12/29 10:22:17;;;;;;;19.10;17.33;;;6.60;85.00;;;;;;5074369;28;20195;-77
2020/12/29 10:24:43;;;;;;;31.90;18.13;;;6.70;84.70;;;;;;5074954;28;20241;-77
2020/12/29 10:27:09;;;;;;;19.08;17.50;;;6.80;83.60;;;;;;5074353;28;20309;-77
2020/12/29 10:29:36;;;;;;;42.25;17.90;;;6.90;82.60;;;;;;5074595;28;20282;-77
2020/12/29 10:32:02;;;;;;;51.63;19.75;;;6.80;82.40;;;;;;5074120;28;20692;-77
2020/12/29 10:34:28;;;;;;;22.25;18.20;;;6.80;83.10;;;;;;5074648;28;20215;-77
2020/12/29 10:36:55;;;;;;;19.30;16.92;;;6.80;84.10;;;;;;5074472;28;20276;-77
2020/12/29 10:39:22;;;;;;;17.50;16.50;;;6.80;83.30;;;;;;5074033;28;20200;-77
2020/12/29 10:41:48;;;;;;;17.50;16.50;;;6.80;83.10;;;;;;5074103;28;20192;-77
2020/12/29 10:44:15;;;;;;;19.05;17.20;;;6.90;83.80;;;;;;5073942;28;20197;-77
2020/12/29 10:46:46;;;;;;;24.10;16.45;;;6.90;83.90;;;;;;5073942;28;20630;-77
2020/12/29 10:49:12;;;;;;;56.00;19.27;;;6.90;86.30;;;;;;5073929;28;20207;-77
2020/12/29 10:51:42;;;;;;;24.80;19.25;;;7.10;85.50;;;;;;5074221;28;20253;-77
2020/12/29 10:54:08;;;;;;;19.15;17.90;;;7.20;85.20;;;;;;5073987;28;20657;-77
2020/12/29 10:56:36;;;;;;;19.13;17.80;;;7.40;84.90;;;;;;5073994;28;20220;-77
2020/12/29 10:59:02;;;;;;;22.17;20.48;;;7.50;85.60;;;;;;5074254;28;20670;-77
2020/12/29 11:01:29;;;;;;;18.45;17.45;;;7.60;83.00;;;;;;5073700;28;20192;-78
2020/12/29 11:03:55;;;;;;;18.88;17.83;;;7.60;82.70;;;;;;5073782;28;20193;-77
2020/12/29 11:06:22;;;;;;;20.65;18.50;;;7.70;79.60;;;;;;5073524;28;20253;-77
2020/12/29 11:08:49;;;;;;;18.60;17.60;;;7.60;82.90;;;;;;5073980;28;20207;-77
2020/12/29 11:11:17;;;;;;;19.30;18.30;;;7.60;81.40;;;;;;5073722;28;20192;-78
2020/12/29 11:13:46;;;;;;;18.33;17.42;;;7.50;82.10;;;;;;5073736;28;20219;-77
2020/12/29 11:16:17;;;;;;;18.45;17.45;;;7.60;80.70;;;;;;5073637;28;20700;-77
2020/12/29 11:18:44;;;;;;;19.60;18.60;;;7.50;83.10;;;;;;5073736;28;20757;-77
2020/12/29 11:21:11;;;;;;;19.45;18.55;;;7.60;79.30;;;;;;5073878;28;20206;-77
2020/12/29 11:23:37;;;;;;;18.20;17.30;;;7.60;79.60;;;;;;5075969;28;20192;-77
2020/12/29 11:26:04;;;;;;;19.50;18.50;;;7.70;80.70;;;;;;5077739;28;20212;-77
2020/12/29 11:28:31;;;;;;;19.60;18.60;;;7.80;81.40;;;;;;5073496;28;20196;-77
2020/12/29 11:30:58;;;;;;;19.40;18.50;;;7.90;77.50;;;;;;5073500;28;20222;-77
2020/12/29 11:33:24;;;;;;;21.30;20.30;;;7.90;80.60;;;;;;5073131;28;20212;-77
2020/12/29 11:35:51;;;;;;;18.55;17.65;;;7.90;78.50;;;;;;5073059;28;20291;-77
2020/12/29 11:38:20;;;;;;;18.77;17.88;;;7.80;80.10;;;;;;5073153;28;20192;-77
2020/12/29 11:40:46;;;;;;;20.75;19.75;;;7.80;79.00;;;;;;5072847;28;20195;-77
2020/12/29 11:43:13;;;;;;;21.10;19.75;;;7.80;76.90;;;;;;5073116;28;20199;-77
2020/12/29 11:45:39;;;;;;;21.63;20.40;;;7.80;76.40;;;;;;5072602;28;20219;-77
2020/12/29 11:48:07;;;;;;;19.85;18.85;;;7.80;75.10;;;;;;5072737;28;20196;-77
2020/12/29 11:50:33;;;;;;;21.60;20.60;;;7.90;74.20;;;;;;5073185;28;20199;-77
2020/12/29 11:52:59;;;;;;;20.85;19.77;;;7.90;73.80;;;;;;5072644;28;20194;-77
2020/12/29 11:55:26;;;;;;;20.80;19.70;;;7.90;75.00;;;;;;5072936;28;20673;-77
2020/12/29 11:57:52;;;;;;;20.10;19.10;;;7.80;73.40;;;;;;5072258;28;20199;-77
2020/12/29 12:00:18;;;;;;;21.30;20.23;;;7.80;73.40;;;;;;5072696;28;20202;-77
2020/12/29 12:02:45;;;;;;;22.75;21.55;;;7.70;73.20;;;;;;5072982;28;20240;-77
2020/12/29 12:05:13;;;;;;;20.48;18.95;;;7.70;74.00;;;;;;5072947;28;20196;-77
2020/12/29 12:07:39;;;;;;;21.95;20.17;;;7.70;76.90;;;;;;5072711;28;20306;-77
2020/12/29 12:10:08;;;;;;;22.05;19.92;;;7.60;76.20;;;;;;5072690;28;20196;-77
2020/12/29 12:12:35;;;;;;;20.40;19.40;;;7.80;75.90;;;;;;5072344;28;20195;-77
2020/12/29 12:15:01;;;;;;;22.25;21.05;;;7.90;73.70;;;;;;5072504;28;20216;-77
2020/12/29 12:17:27;;;;;;;22.55;21.20;;;8.00;72.40;;;;;;5072738;28;20212;-77
2020/12/29 12:19:54;;;;;;;20.20;18.60;;;8.00;72.10;;;;;;5072833;28;20286;-77
2020/12/29 12:22:21;;;;;;;23.30;21.40;;;7.90;73.20;;;;;;5072513;28;20192;-77
2020/12/29 12:24:47;;;;;;;20.83;18.90;;;7.80;74.50;;;;;;5072782;28;20553;-77
2020/12/29 12:27:13;;;;;;;20.85;19.65;;;7.80;77.00;;;;;;5072597;28;20238;-77
2020/12/29 12:29:40;;;;;;;22.95;21.20;;;7.90;74.50;;;;;;5072739;28;20679;-77
2020/12/29 12:32:06;;;;;;;21.77;20.60;;;8.00;74.10;;;;;;5072209;28;20203;-77
2020/12/29 12:34:32;;;;;;;22.60;21.10;;;8.00;73.40;;;;;;5072360;28;20219;-77
2020/12/29 12:36:59;;;;;;;35.53;22.08;;;8.00;73.80;;;;;;5072316;28;20588;-77
2020/12/29 12:39:26;;;;;;;24.00;21.65;;;7.90;73.80;;;;;;5072663;28;20226;-77